createdAt,value
2022-09-16T00:03:59.043Z,957.17
2022-09-16T00:09:01.213Z,957.13
2022-09-16T00:14:03.293Z,957.03
2022-09-16T00:19:04.887Z,957.1
2022-09-16T00:24:06.922Z,957.03
2022-09-16T00:29:08.202Z,957.01
2022-09-16T00:34:09.702Z,957.07
2022-09-16T00:39:10.961Z,957
2022-09-16T00:44:13.091Z,956.99
2022-09-16T00:49:14.342Z,956.99
2022-09-16T00:54:16.229Z,957.03
2022-09-16T00:59:17.722Z,957.05
2022-09-16T01:04:19.534Z,957.08
2022-09-16T01:09:21.669Z,957.02
2022-09-16T01:14:23.221Z,956.99
2022-09-16T01:19:25.217Z,956.9
2022-09-16T01:24:27.065Z,956.86
2022-09-16T01:29:29.115Z,956.9
2022-09-16T01:34:31.154Z,956.95
2022-09-16T01:39:32.646Z,956.9
2022-09-16T01:44:34.042Z,956.88
2022-09-16T01:49:35.950Z,956.89
2022-09-16T01:54:37.932Z,956.9
2022-09-16T01:59:39.296Z,956.89
2022-09-16T02:04:41.182Z,956.86
2022-09-16T02:09:43.243Z,956.85
2022-09-16T02:14:45.343Z,956.9
2022-09-16T02:19:47.147Z,956.92
2022-09-16T02:24:49.016Z,956.9
2022-09-16T02:29:51.253Z,956.92
2022-09-16T02:34:52.824Z,956.92
2022-09-16T02:39:54.224Z,956.87
2022-09-16T02:44:55.777Z,956.82
2022-09-16T02:49:57.141Z,956.86
2022-09-16T02:54:59.265Z,956.83
2022-09-16T03:00:00.988Z,956.81
2022-09-16T03:05:02.216Z,956.82
2022-09-16T03:10:03.511Z,956.78
2022-09-16T03:15:04.911Z,956.77
2022-09-16T03:20:06.908Z,956.72
2022-09-16T03:25:09.013Z,956.63
2022-09-16T03:30:11.200Z,956.65
2022-09-16T03:35:13.333Z,956.56
2022-09-16T03:40:14.949Z,956.49
2022-09-16T03:45:16.727Z,956.48
2022-09-16T03:50:18.641Z,956.49
2022-09-16T03:55:20.675Z,956.48
2022-09-16T04:00:28.309Z,956.51
2022-09-16T04:05:30.125Z,956.5
2022-09-16T04:10:31.502Z,956.47
2022-09-16T04:15:35.070Z,956.49
2022-09-16T04:20:34.144Z,956.55
2022-09-16T04:25:36.102Z,956.51
2022-09-16T04:30:38.006Z,956.54
2022-09-16T04:35:39.573Z,956.53
2022-09-16T04:40:41.623Z,956.55
2022-09-16T04:45:43.438Z,956.66
2022-09-16T04:50:45.553Z,956.69
2022-09-16T04:55:47.437Z,956.72
2022-09-16T05:00:49.693Z,956.74
2022-09-16T05:05:51.616Z,956.75
2022-09-16T05:10:52.998Z,956.8
2022-09-16T05:15:54.497Z,956.78
2022-09-16T05:20:55.604Z,956.77
2022-09-16T05:25:57.142Z,956.8
2022-09-16T05:30:58.574Z,956.77
2022-09-16T05:36:00.435Z,956.76
2022-09-16T05:41:02.233Z,956.86
2022-09-16T05:46:04.463Z,956.88
2022-09-16T05:51:05.694Z,956.78
2022-09-16T05:56:07.826Z,956.71
2022-09-16T06:01:09.329Z,956.68
2022-09-16T06:06:11.322Z,956.73
2022-09-16T06:11:12.601Z,956.72
2022-09-16T06:16:14.131Z,956.77
2022-09-16T06:21:15.621Z,956.65
2022-09-16T06:26:16.929Z,956.61
2022-09-16T06:31:18.983Z,956.68
2022-09-16T06:36:20.817Z,956.73
2022-09-16T06:41:22.204Z,956.66
2022-09-16T06:46:24.451Z,956.56
2022-09-16T06:51:26.040Z,956.58
2022-09-16T06:56:27.711Z,956.59
2022-09-16T07:01:29.791Z,956.58
2022-09-16T07:07:05.146Z,956.54
2022-09-16T07:11:32.580Z,956.54
2022-09-16T07:16:34.644Z,956.54
2022-09-16T07:21:36.567Z,956.52
2022-09-16T07:26:38.655Z,956.45
2022-09-16T07:31:40.776Z,956.51
2022-09-16T07:36:42.744Z,956.53
2022-09-16T07:41:44.099Z,956.51
2022-09-16T07:46:46.270Z,956.46
2022-09-16T07:51:47.943Z,956.49
2022-09-16T07:56:49.263Z,956.53
2022-09-16T08:01:50.949Z,956.58
2022-09-16T08:06:52.255Z,956.54
2022-09-16T08:11:53.873Z,956.46
2022-09-16T08:16:55.400Z,956.57
2022-09-16T08:21:56.817Z,956.67
2022-09-16T08:26:58.258Z,956.7
2022-09-16T08:31:59.933Z,956.66
2022-09-16T08:37:01.435Z,956.65
2022-09-16T08:42:03.319Z,956.62
2022-09-16T08:47:04.851Z,956.6
2022-09-16T08:52:06.530Z,956.59
2022-09-16T08:57:08.008Z,956.63
2022-09-16T09:02:10.111Z,956.63
2022-09-16T09:07:11.461Z,956.61
2022-09-16T09:12:13.475Z,956.61
2022-09-16T09:17:14.001Z,956.67
2022-09-16T09:22:15.169Z,956.61
2022-09-16T09:27:16.612Z,956.57
2022-09-16T09:32:18.295Z,956.53
2022-09-16T09:37:19.621Z,956.5
2022-09-16T09:42:21.654Z,956.4
2022-09-16T09:47:23.077Z,956.36
2022-09-16T09:52:24.321Z,956.46
2022-09-16T09:57:25.775Z,956.51
2022-09-16T10:02:27.487Z,956.58
2022-09-16T10:07:28.565Z,956.51
2022-09-16T10:12:30.414Z,956.52
2022-09-16T10:17:32.672Z,956.51
2022-09-16T10:22:33.816Z,956.55
2022-09-16T10:27:35.714Z,956.6
2022-09-16T10:32:37.709Z,956.47
2022-09-16T10:37:38.857Z,956.4
2022-09-16T10:42:40.255Z,956.31
2022-09-16T10:47:42.518Z,956.2
2022-09-16T10:52:44.034Z,956.17
2022-09-16T10:57:45.382Z,956.24
2022-09-16T11:02:47.141Z,956.41
2022-09-16T11:07:48.440Z,956.46
2022-09-16T11:12:50.416Z,956.58
2022-09-16T11:17:52.261Z,956.63
2022-09-16T11:22:54.261Z,956.6
2022-09-16T11:27:55.810Z,956.7
2022-09-16T11:32:59.891Z,956.75
2022-09-16T11:37:59.626Z,956.6
2022-09-16T11:43:00.890Z,956.71
2022-09-16T11:48:03.017Z,956.65
2022-09-16T11:53:05.986Z,956.7
2022-09-16T11:58:06.613Z,956.66
2022-09-16T12:03:08.502Z,956.74
2022-09-16T12:08:09.639Z,956.89
2022-09-16T12:13:11.705Z,956.86
2022-09-16T12:18:13.620Z,956.82
2022-09-16T12:23:15.405Z,956.8
2022-09-16T12:28:17.348Z,956.93
2022-09-16T12:33:18.934Z,957.03
2022-09-16T12:38:20.881Z,957.02
2022-09-16T12:43:22.646Z,957.12
2022-09-16T12:48:24.345Z,957.25
2022-09-16T12:53:25.873Z,957.35
2022-09-16T12:58:27.760Z,957.4
2022-09-16T13:03:29.694Z,957.36
2022-09-16T13:08:31.610Z,957.31
2022-09-16T13:13:33.216Z,957.24
2022-09-16T13:18:34.707Z,957.13
2022-09-16T13:23:36.295Z,957
2022-09-16T13:28:37.520Z,956.88
2022-09-16T13:33:39.112Z,956.84
2022-09-16T13:38:41.050Z,956.86
2022-09-16T13:43:42.938Z,956.9
2022-09-16T13:48:44.549Z,956.99
2022-09-16T13:53:45.922Z,957.11
2022-09-16T13:58:47.762Z,957.09
2022-09-16T14:03:49.481Z,957.25
2022-09-16T14:08:51.788Z,957.21
2022-09-16T14:14:00.750Z,957.23
2022-09-16T14:18:54.354Z,957.22
2022-09-16T14:23:55.980Z,957.27
2022-09-16T14:28:57.922Z,957.23
2022-09-16T14:33:59.893Z,957.21
2022-09-16T14:39:01.148Z,957.25
2022-09-16T14:44:02.546Z,957.29
2022-09-16T14:49:04.658Z,957.31
2022-09-16T14:54:12.484Z,957.28
2022-09-16T14:59:08.091Z,957.35
2022-09-16T15:04:10.226Z,957.34
2022-09-16T15:09:11.580Z,957.37
2022-09-16T15:14:13.652Z,957.35
2022-09-16T15:19:15.715Z,957.32
2022-09-16T15:24:17.633Z,957.3
2022-09-16T15:44:24.117Z,957.27
2022-09-16T15:49:25.365Z,957.25
2022-09-16T15:54:27.069Z,957.16
2022-09-16T15:59:29.271Z,957.24
2022-09-16T16:04:31.066Z,957.15
2022-09-16T16:09:32.284Z,957.2
2022-09-16T16:14:33.943Z,957.3
2022-09-16T16:19:35.853Z,957.19
2022-09-16T16:24:37.090Z,957.15
2022-09-16T16:29:39.534Z,957.13
2022-09-16T16:34:41.072Z,957.13
2022-09-16T16:39:42.422Z,957.11
2022-09-16T16:44:44.042Z,957.16
2022-09-16T16:49:48.330Z,957.08
2022-09-16T16:54:46.960Z,957.11
2022-09-16T16:59:48.574Z,957.13
2022-09-16T17:04:50.098Z,957.21
2022-09-16T17:09:52.052Z,957.29
2022-09-16T17:14:54.072Z,957.31
2022-09-16T17:19:55.399Z,957.32
2022-09-16T17:24:56.730Z,957.27
2022-09-16T17:29:59.051Z,957.26
2022-09-16T17:35:00.774Z,957.23
2022-09-16T17:40:02.556Z,957.15
2022-09-16T17:50:05.770Z,957.11
2022-09-16T17:55:07.319Z,957.17
2022-09-16T18:00:09.341Z,957.19
2022-09-16T18:05:11.357Z,957.17
2022-09-16T18:10:13.310Z,957.1
2022-09-16T18:15:15.157Z,957.19
2022-09-16T18:20:16.996Z,957.22
2022-09-16T18:25:18.057Z,957.12
2022-09-16T18:30:19.656Z,957.22
2022-09-16T18:35:21.236Z,957.3
2022-09-16T18:40:23.003Z,957.27
2022-09-16T18:45:24.980Z,957.32
2022-09-16T18:50:27.080Z,957.32
2022-09-16T18:55:28.748Z,957.32
2022-09-16T19:00:29.974Z,957.38
2022-09-16T19:05:31.801Z,957.41
2022-09-16T19:10:33.844Z,957.41
2022-09-16T19:15:35.568Z,957.34
2022-09-16T19:20:37.515Z,957.33
2022-09-16T19:25:39.065Z,957.26
2022-09-16T19:30:41.101Z,957.41
2022-09-16T19:35:43.228Z,957.38
2022-09-16T19:40:44.555Z,957.45
2022-09-16T19:45:46.264Z,957.4
2022-09-16T19:50:47.824Z,957.43
2022-09-16T19:55:49.835Z,957.42
2022-09-16T20:00:56.051Z,957.34
2022-09-16T20:05:53.364Z,957.4
2022-09-16T20:10:55.318Z,957.25
2022-09-16T20:15:57.487Z,957.38
2022-09-16T20:20:59.564Z,957.41
2022-09-16T20:26:01.625Z,957.38
2022-09-16T20:31:03.692Z,957.45
2022-09-16T20:36:05.761Z,957.47
2022-09-16T20:41:07.407Z,957.32
2022-09-16T20:46:15.917Z,957.25
2022-09-16T20:51:17.830Z,957.35
2022-09-16T20:56:19.071Z,957.29
2022-09-16T21:01:20.861Z,957.42
2022-09-16T21:06:22.815Z,957.48
2022-09-16T21:11:24.128Z,957.64
2022-09-16T21:16:25.430Z,957.77
2022-09-16T21:21:27.539Z,958
2022-09-16T21:26:29.219Z,957.99
2022-09-16T21:31:30.727Z,958.07
2022-09-16T21:36:32.743Z,957.94
2022-09-16T21:41:33.984Z,957.83
2022-09-16T21:46:35.759Z,957.7
2022-09-16T21:51:37.217Z,957.64
2022-09-16T21:56:38.812Z,957.61
2022-09-16T22:11:59.536Z,957.85
2022-09-16T22:16:45.614Z,957.72
2022-09-16T22:21:47.768Z,957.7
2022-09-16T22:26:49.477Z,957.74
2022-09-16T22:31:51.144Z,957.74
2022-09-16T22:36:52.378Z,957.85
2022-09-16T22:41:54.577Z,957.84
2022-09-16T22:46:56.642Z,957.85
2022-09-16T22:51:58.187Z,957.81
2022-09-16T22:57:00.111Z,957.76
2022-09-16T23:02:01.549Z,957.62
2022-09-16T23:07:03.165Z,957.73
2022-09-16T23:12:04.942Z,957.72
2022-09-16T23:17:06.930Z,957.82
2022-09-16T23:22:07.969Z,957.78
2022-09-16T23:27:09.148Z,957.79
2022-09-16T23:32:10.881Z,957.74
2022-09-16T23:37:12.377Z,957.64
2022-09-16T23:42:14.228Z,957.57
2022-09-16T23:47:16.551Z,957.71
2022-09-16T23:52:18.509Z,957.71
2022-09-16T23:57:20.668Z,957.84
